sensor_id;sensor_type;location;lat;lon;timestamp;temperature;humidity
23116;DHT22;11727;52.134;5.052;2023-07-31T00:00:36;15.90;99.90
23116;DHT22;11727;52.134;5.052;2023-07-31T00:03:02;16.00;99.90
23116;DHT22;11727;52.134;5.052;2023-07-31T00:05:28;16.00;99.90
23116;DHT22;11727;52.134;5.052;2023-07-31T00:07:53;16.10;99.90
23116;DHT22;11727;52.134;5.052;2023-07-31T00:10:20;16.10;99.90
23116;DHT22;11727;52.134;5.052;2023-07-31T00:12:46;16.10;99.90
23116;DHT22;11727;52.134;5.052;2023-07-31T00:15:13;16.10;99.90
23116;DHT22;11727;52.134;5.052;2023-07-31T00:17:39;16.20;99.90
23116;DHT22;11727;52.134;5.052;2023-07-31T00:20:04;16.30;99.90
23116;DHT22;11727;52.134;5.052;2023-07-31T00:22:30;16.30;99.90
23116;DHT22;11727;52.134;5.052;2023-07-31T00:24:57;16.40;99.90
23116;DHT22;11727;52.134;5.052;2023-07-31T00:27:23;16.50;99.90
23116;DHT22;11727;52.134;5.052;2023-07-31T00:29:48;16.60;99.90
23116;DHT22;11727;52.134;5.052;2023-07-31T00:32:14;16.60;99.90
23116;DHT22;11727;52.134;5.052;2023-07-31T00:34:40;16.60;99.90
23116;DHT22;11727;52.134;5.052;2023-07-31T00:37:05;16.60;99.90
23116;DHT22;11727;52.134;5.052;2023-07-31T00:39:31;16.60;99.90
23116;DHT22;11727;52.134;5.052;2023-07-31T00:41:57;16.60;99.90
23116;DHT22;11727;52.134;5.052;2023-07-31T00:44:23;16.60;99.90
23116;DHT22;11727;52.134;5.052;2023-07-31T00:46:49;16.50;99.90
23116;DHT22;11727;52.134;5.052;2023-07-31T00:49:15;16.50;99.90
23116;DHT22;11727;52.134;5.052;2023-07-31T00:51:41;16.50;99.90
23116;DHT22;11727;52.134;5.052;2023-07-31T00:54:06;16.50;99.90
23116;DHT22;11727;52.134;5.052;2023-07-31T00:56:32;16.50;99.90
23116;DHT22;11727;52.134;5.052;2023-07-31T00:58:58;16.50;99.90
23116;DHT22;11727;52.134;5.052;2023-07-31T01:01:24;16.30;99.90
23116;DHT22;11727;52.134;5.052;2023-07-31T01:03:51;16.30;99.90
23116;DHT22;11727;52.134;5.052;2023-07-31T01:06:39;16.20;99.90
23116;DHT22;11727;52.134;5.052;2023-07-31T01:09:16;16.30;99.90
23116;DHT22;11727;52.134;5.052;2023-07-31T01:11:54;16.30;99.90
23116;DHT22;11727;52.134;5.052;2023-07-31T01:14:21;16.30;99.90
23116;DHT22;11727;52.134;5.052;2023-07-31T01:16:47;16.30;99.90
23116;DHT22;11727;52.134;5.052;2023-07-31T01:19:14;16.30;99.90
23116;DHT22;11727;52.134;5.052;2023-07-31T01:27:47;16.40;99.90
23116;DHT22;11727;52.134;5.052;2023-07-31T01:30:20;16.40;99.90
23116;DHT22;11727;52.134;5.052;2023-07-31T01:32:48;16.50;99.90
23116;DHT22;11727;52.134;5.052;2023-07-31T01:35:15;16.50;99.90
23116;DHT22;11727;52.134;5.052;2023-07-31T01:37:41;16.50;99.90
23116;DHT22;11727;52.134;5.052;2023-07-31T01:40:06;16.50;99.90
23116;DHT22;11727;52.134;5.052;2023-07-31T01:42:32;16.50;99.90
23116;DHT22;11727;52.134;5.052;2023-07-31T01:44:58;16.50;99.90
23116;DHT22;11727;52.134;5.052;2023-07-31T01:47:23;16.50;99.90
23116;DHT22;11727;52.134;5.052;2023-07-31T01:49:49;16.50;99.90
23116;DHT22;11727;52.134;5.052;2023-07-31T01:52:15;16.50;99.90
23116;DHT22;11727;52.134;5.052;2023-07-31T01:54:40;16.50;99.90
23116;DHT22;11727;52.134;5.052;2023-07-31T01:57:06;16.50;99.90
23116;DHT22;11727;52.134;5.052;2023-07-31T01:59:32;16.50;99.90
23116;DHT22;11727;52.134;5.052;2023-07-31T02:01:57;16.50;99.90
23116;DHT22;11727;52.134;5.052;2023-07-31T02:04:23;16.40;99.90
23116;DHT22;11727;52.134;5.052;2023-07-31T02:06:49;16.40;99.90
23116;DHT22;11727;52.134;5.052;2023-07-31T02:09:14;16.40;99.90
23116;DHT22;11727;52.134;5.052;2023-07-31T02:11:40;16.40;99.90
23116;DHT22;11727;52.134;5.052;2023-07-31T02:14:05;16.40;99.90
23116;DHT22;11727;52.134;5.052;2023-07-31T02:16:31;16.30;99.90
23116;DHT22;11727;52.134;5.052;2023-07-31T02:18:57;16.40;99.90
23116;DHT22;11727;52.134;5.052;2023-07-31T02:21:23;16.40;99.90
23116;DHT22;11727;52.134;5.052;2023-07-31T02:23:48;16.40;99.90
23116;DHT22;11727;52.134;5.052;2023-07-31T02:26:14;16.40;99.90
23116;DHT22;11727;52.134;5.052;2023-07-31T02:28:39;16.40;99.90
23116;DHT22;11727;52.134;5.052;2023-07-31T02:31:08;16.40;99.90
23116;DHT22;11727;52.134;5.052;2023-07-31T02:33:33;16.40;99.90
23116;DHT22;11727;52.134;5.052;2023-07-31T02:35:59;16.40;99.90
23116;DHT22;11727;52.134;5.052;2023-07-31T02:38:27;16.40;99.90
23116;DHT22;11727;52.134;5.052;2023-07-31T02:40:53;16.40;99.90
23116;DHT22;11727;52.134;5.052;2023-07-31T02:43:18;16.40;99.90
23116;DHT22;11727;52.134;5.052;2023-07-31T02:45:44;16.40;99.90
23116;DHT22;11727;52.134;5.052;2023-07-31T02:48:09;16.40;99.90
23116;DHT22;11727;52.134;5.052;2023-07-31T02:50:35;16.40;99.90
23116;DHT22;11727;52.134;5.052;2023-07-31T02:53:01;16.40;99.90
23116;DHT22;11727;52.134;5.052;2023-07-31T02:55:26;16.40;99.90
23116;DHT22;11727;52.134;5.052;2023-07-31T02:57:52;16.40;99.90
23116;DHT22;11727;52.134;5.052;2023-07-31T03:00:18;16.40;99.90
23116;DHT22;11727;52.134;5.052;2023-07-31T03:02:44;16.40;99.90
23116;DHT22;11727;52.134;5.052;2023-07-31T03:05:10;16.40;99.90
23116;DHT22;11727;52.134;5.052;2023-07-31T03:07:35;16.40;99.90
23116;DHT22;11727;52.134;5.052;2023-07-31T03:10:01;16.40;99.90
23116;DHT22;11727;52.134;5.052;2023-07-31T03:12:27;16.40;99.90
23116;DHT22;11727;52.134;5.052;2023-07-31T03:14:52;16.40;99.90
23116;DHT22;11727;52.134;5.052;2023-07-31T03:17:18;16.30;99.90
23116;DHT22;11727;52.134;5.052;2023-07-31T03:19:44;16.30;99.90
23116;DHT22;11727;52.134;5.052;2023-07-31T03:22:09;16.40;99.90
23116;DHT22;11727;52.134;5.052;2023-07-31T03:24:35;16.30;99.90
23116;DHT22;11727;52.134;5.052;2023-07-31T03:27:00;16.30;99.90
23116;DHT22;11727;52.134;5.052;2023-07-31T03:29:26;16.30;99.90
23116;DHT22;11727;52.134;5.052;2023-07-31T03:31:52;16.30;99.90
23116;DHT22;11727;52.134;5.052;2023-07-31T03:34:17;16.30;99.90
23116;DHT22;11727;52.134;5.052;2023-07-31T03:36:43;16.20;99.90
23116;DHT22;11727;52.134;5.052;2023-07-31T03:39:09;16.20;99.90
23116;DHT22;11727;52.134;5.052;2023-07-31T03:41:35;16.20;99.90
23116;DHT22;11727;52.134;5.052;2023-07-31T03:44:00;16.20;99.90
23116;DHT22;11727;52.134;5.052;2023-07-31T03:46:26;16.20;99.90
23116;DHT22;11727;52.134;5.052;2023-07-31T03:48:52;16.20;99.90
23116;DHT22;11727;52.134;5.052;2023-07-31T03:51:17;16.20;99.90
23116;DHT22;11727;52.134;5.052;2023-07-31T03:53:43;16.20;99.90
23116;DHT22;11727;52.134;5.052;2023-07-31T03:56:10;16.20;99.90
23116;DHT22;11727;52.134;5.052;2023-07-31T03:58:35;16.20;99.90
23116;DHT22;11727;52.134;5.052;2023-07-31T04:01:02;16.20;99.90
23116;DHT22;11727;52.134;5.052;2023-07-31T04:03:28;16.20;99.90
23116;DHT22;11727;52.134;5.052;2023-07-31T04:05:54;16.20;99.90
23116;DHT22;11727;52.134;5.052;2023-07-31T04:08:24;16.20;99.90
23116;DHT22;11727;52.134;5.052;2023-07-31T04:10:50;16.20;99.90
23116;DHT22;11727;52.134;5.052;2023-07-31T04:13:16;16.20;99.90
23116;DHT22;11727;52.134;5.052;2023-07-31T04:15:41;16.20;99.90
23116;DHT22;11727;52.134;5.052;2023-07-31T04:18:07;16.20;99.90
23116;DHT22;11727;52.134;5.052;2023-07-31T04:20:33;16.20;99.90
23116;DHT22;11727;52.134;5.052;2023-07-31T04:22:58;16.20;99.90
23116;DHT22;11727;52.134;5.052;2023-07-31T04:25:24;16.10;99.90
23116;DHT22;11727;52.134;5.052;2023-07-31T04:27:50;16.10;99.90
23116;DHT22;11727;52.134;5.052;2023-07-31T04:30:15;16.10;99.90
23116;DHT22;11727;52.134;5.052;2023-07-31T04:32:41;16.10;99.90
23116;DHT22;11727;52.134;5.052;2023-07-31T04:35:07;16.10;99.90
23116;DHT22;11727;52.134;5.052;2023-07-31T04:37:32;16.10;99.90
23116;DHT22;11727;52.134;5.052;2023-07-31T04:39:58;16.10;99.90
23116;DHT22;11727;52.134;5.052;2023-07-31T04:42:24;16.10;99.90
23116;DHT22;11727;52.134;5.052;2023-07-31T04:44:49;16.10;99.90
23116;DHT22;11727;52.134;5.052;2023-07-31T04:47:15;16.10;99.90
23116;DHT22;11727;52.134;5.052;2023-07-31T04:49:40;16.00;99.90
23116;DHT22;11727;52.134;5.052;2023-07-31T04:52:06;16.10;99.90
23116;DHT22;11727;52.134;5.052;2023-07-31T04:54:32;16.00;99.90
23116;DHT22;11727;52.134;5.052;2023-07-31T04:56:58;16.00;99.90
23116;DHT22;11727;52.134;5.052;2023-07-31T04:59:23;16.00;99.90
23116;DHT22;11727;52.134;5.052;2023-07-31T05:01:49;16.00;99.90
23116;DHT22;11727;52.134;5.052;2023-07-31T05:04:15;16.00;99.90
23116;DHT22;11727;52.134;5.052;2023-07-31T05:06:41;16.00;99.90
23116;DHT22;11727;52.134;5.052;2023-07-31T05:09:07;16.00;99.90
23116;DHT22;11727;52.134;5.052;2023-07-31T05:11:34;15.90;99.90
23116;DHT22;11727;52.134;5.052;2023-07-31T05:14:00;15.90;99.90
23116;DHT22;11727;52.134;5.052;2023-07-31T05:16:26;15.90;99.90
23116;DHT22;11727;52.134;5.052;2023-07-31T05:18:51;15.90;99.90
23116;DHT22;11727;52.134;5.052;2023-07-31T05:21:17;15.90;99.90
23116;DHT22;11727;52.134;5.052;2023-07-31T05:23:43;15.90;99.90
23116;DHT22;11727;52.134;5.052;2023-07-31T05:26:08;15.90;99.90
23116;DHT22;11727;52.134;5.052;2023-07-31T05:28:37;15.90;99.90
23116;DHT22;11727;52.134;5.052;2023-07-31T05:31:04;15.90;99.90
23116;DHT22;11727;52.134;5.052;2023-07-31T05:33:29;15.90;99.90
23116;DHT22;11727;52.134;5.052;2023-07-31T05:35:56;15.90;99.90
23116;DHT22;11727;52.134;5.052;2023-07-31T05:38:22;15.90;99.90
23116;DHT22;11727;52.134;5.052;2023-07-31T05:40:48;15.90;99.90
23116;DHT22;11727;52.134;5.052;2023-07-31T05:43:13;15.90;99.90
23116;DHT22;11727;52.134;5.052;2023-07-31T05:45:41;15.90;99.90
23116;DHT22;11727;52.134;5.052;2023-07-31T05:48:07;15.90;99.90
23116;DHT22;11727;52.134;5.052;2023-07-31T05:50:33;15.90;99.90
23116;DHT22;11727;52.134;5.052;2023-07-31T05:52:58;15.90;99.90
23116;DHT22;11727;52.134;5.052;2023-07-31T05:55:24;15.90;99.90
23116;DHT22;11727;52.134;5.052;2023-07-31T05:57:52;15.90;99.90
23116;DHT22;11727;52.134;5.052;2023-07-31T06:00:18;15.90;99.90
23116;DHT22;11727;52.134;5.052;2023-07-31T06:02:44;16.00;99.90
23116;DHT22;11727;52.134;5.052;2023-07-31T06:05:09;16.00;99.90
23116;DHT22;11727;52.134;5.052;2023-07-31T06:07:35;16.00;99.90
23116;DHT22;11727;52.134;5.052;2023-07-31T06:10:01;16.00;99.90
23116;DHT22;11727;52.134;5.052;2023-07-31T06:12:34;16.00;99.90
23116;DHT22;11727;52.134;5.052;2023-07-31T06:15:00;16.00;99.90
23116;DHT22;11727;52.134;5.052;2023-07-31T06:17:26;16.10;99.90
23116;DHT22;11727;52.134;5.052;2023-07-31T06:19:52;16.00;99.90
23116;DHT22;11727;52.134;5.052;2023-07-31T06:22:17;16.10;99.90
23116;DHT22;11727;52.134;5.052;2023-07-31T06:24:43;16.10;99.90
23116;DHT22;11727;52.134;5.052;2023-07-31T06:27:10;16.10;99.90
23116;DHT22;11727;52.134;5.052;2023-07-31T06:29:36;16.10;99.90
23116;DHT22;11727;52.134;5.052;2023-07-31T06:32:01;16.20;99.90
23116;DHT22;11727;52.134;5.052;2023-07-31T06:34:27;16.20;99.90
23116;DHT22;11727;52.134;5.052;2023-07-31T06:36:53;16.10;99.90
23116;DHT22;11727;52.134;5.052;2023-07-31T06:39:18;16.20;99.90
23116;DHT22;11727;52.134;5.052;2023-07-31T06:41:44;16.30;99.90
23116;DHT22;11727;52.134;5.052;2023-07-31T06:44:10;16.20;99.90
23116;DHT22;11727;52.134;5.052;2023-07-31T06:46:36;16.30;99.90
23116;DHT22;11727;52.134;5.052;2023-07-31T06:49:02;16.20;99.90
23116;DHT22;11727;52.134;5.052;2023-07-31T06:51:27;16.30;99.90
23116;DHT22;11727;52.134;5.052;2023-07-31T06:53:53;16.30;99.90
23116;DHT22;11727;52.134;5.052;2023-07-31T06:56:19;16.40;99.90
23116;DHT22;11727;52.134;5.052;2023-07-31T06:58:44;16.40;99.90
23116;DHT22;11727;52.134;5.052;2023-07-31T07:01:10;16.40;99.90
23116;DHT22;11727;52.134;5.052;2023-07-31T07:03:35;16.40;99.90
23116;DHT22;11727;52.134;5.052;2023-07-31T07:06:01;16.40;99.90
23116;DHT22;11727;52.134;5.052;2023-07-31T07:08:26;16.50;99.90
23116;DHT22;11727;52.134;5.052;2023-07-31T07:10:52;16.50;99.90
23116;DHT22;11727;52.134;5.052;2023-07-31T07:13:18;16.50;99.90
23116;DHT22;11727;52.134;5.052;2023-07-31T07:15:50;16.50;99.90
23116;DHT22;11727;52.134;5.052;2023-07-31T07:18:16;16.50;99.90
23116;DHT22;11727;52.134;5.052;2023-07-31T07:20:50;16.50;99.90
23116;DHT22;11727;52.134;5.052;2023-07-31T07:23:16;16.60;99.90
23116;DHT22;11727;52.134;5.052;2023-07-31T07:25:42;16.60;99.90
23116;DHT22;11727;52.134;5.052;2023-07-31T07:28:08;16.60;99.90
23116;DHT22;11727;52.134;5.052;2023-07-31T07:30:34;16.60;99.90
23116;DHT22;11727;52.134;5.052;2023-07-31T07:33:00;16.60;99.90
23116;DHT22;11727;52.134;5.052;2023-07-31T07:35:25;16.60;99.90
23116;DHT22;11727;52.134;5.052;2023-07-31T07:37:51;16.60;99.90
23116;DHT22;11727;52.134;5.052;2023-07-31T07:40:17;16.60;99.90
23116;DHT22;11727;52.134;5.052;2023-07-31T07:42:42;16.70;99.90
23116;DHT22;11727;52.134;5.052;2023-07-31T07:45:08;16.70;99.90
23116;DHT22;11727;52.134;5.052;2023-07-31T07:47:34;16.70;99.90
23116;DHT22;11727;52.134;5.052;2023-07-31T07:50:00;16.70;99.90
23116;DHT22;11727;52.134;5.052;2023-07-31T07:52:25;16.80;99.90
23116;DHT22;11727;52.134;5.052;2023-07-31T07:54:51;16.80;99.90
23116;DHT22;11727;52.134;5.052;2023-07-31T07:57:17;16.80;99.90
23116;DHT22;11727;52.134;5.052;2023-07-31T07:59:42;16.80;99.90
23116;DHT22;11727;52.134;5.052;2023-07-31T08:02:08;16.80;99.90
23116;DHT22;11727;52.134;5.052;2023-07-31T08:04:33;16.90;99.90
23116;DHT22;11727;52.134;5.052;2023-07-31T08:06:59;16.90;99.90
23116;DHT22;11727;52.134;5.052;2023-07-31T08:09:24;16.90;99.90
23116;DHT22;11727;52.134;5.052;2023-07-31T08:11:50;16.90;99.90
23116;DHT22;11727;52.134;5.052;2023-07-31T08:14:16;16.90;99.90
23116;DHT22;11727;52.134;5.052;2023-07-31T08:16:42;17.00;99.90
23116;DHT22;11727;52.134;5.052;2023-07-31T08:19:08;17.00;99.90
23116;DHT22;11727;52.134;5.052;2023-07-31T08:21:33;17.00;99.90
23116;DHT22;11727;52.134;5.052;2023-07-31T08:23:59;17.00;99.90
23116;DHT22;11727;52.134;5.052;2023-07-31T08:26:25;17.10;99.90
23116;DHT22;11727;52.134;5.052;2023-07-31T08:28:50;17.20;99.90
23116;DHT22;11727;52.134;5.052;2023-07-31T08:31:16;17.20;99.90
23116;DHT22;11727;52.134;5.052;2023-07-31T08:33:41;17.20;99.90
23116;DHT22;11727;52.134;5.052;2023-07-31T08:36:07;17.20;99.90
23116;DHT22;11727;52.134;5.052;2023-07-31T08:38:33;17.20;99.90
23116;DHT22;11727;52.134;5.052;2023-07-31T08:40:59;17.20;99.90
23116;DHT22;11727;52.134;5.052;2023-07-31T08:43:26;17.20;99.90
23116;DHT22;11727;52.134;5.052;2023-07-31T08:45:52;17.20;99.90
23116;DHT22;11727;52.134;5.052;2023-07-31T08:48:17;17.10;99.90
23116;DHT22;11727;52.134;5.052;2023-07-31T08:50:44;17.10;99.90
23116;DHT22;11727;52.134;5.052;2023-07-31T08:53:11;17.10;99.90
23116;DHT22;11727;52.134;5.052;2023-07-31T08:55:38;17.20;99.90
23116;DHT22;11727;52.134;5.052;2023-07-31T08:58:04;17.30;99.90
23116;DHT22;11727;52.134;5.052;2023-07-31T09:00:32;17.30;99.90
23116;DHT22;11727;52.134;5.052;2023-07-31T09:03:02;17.30;99.90
23116;DHT22;11727;52.134;5.052;2023-07-31T09:05:29;17.30;99.90
23116;DHT22;11727;52.134;5.052;2023-07-31T09:07:56;17.40;99.90
23116;DHT22;11727;52.134;5.052;2023-07-31T09:10:22;17.40;99.90
23116;DHT22;11727;52.134;5.052;2023-07-31T09:12:49;17.40;99.90
23116;DHT22;11727;52.134;5.052;2023-07-31T09:15:16;17.40;99.90
23116;DHT22;11727;52.134;5.052;2023-07-31T09:17:42;17.40;99.90
23116;DHT22;11727;52.134;5.052;2023-07-31T09:20:21;17.40;99.90
23116;DHT22;11727;52.134;5.052;2023-07-31T09:22:48;17.40;99.90
23116;DHT22;11727;52.134;5.052;2023-07-31T09:28:04;17.50;99.90
23116;DHT22;11727;52.134;5.052;2023-07-31T09:30:30;17.50;99.90
23116;DHT22;11727;52.134;5.052;2023-07-31T09:33:04;17.50;99.90
23116;DHT22;11727;52.134;5.052;2023-07-31T09:35:35;17.60;99.90
23116;DHT22;11727;52.134;5.052;2023-07-31T09:38:08;17.70;99.90
23116;DHT22;11727;52.134;5.052;2023-07-31T09:40:48;17.70;99.90
23116;DHT22;11727;52.134;5.052;2023-07-31T09:43:18;17.80;99.90
23116;DHT22;11727;52.134;5.052;2023-07-31T09:45:45;17.70;99.90
23116;DHT22;11727;52.134;5.052;2023-07-31T09:48:12;17.80;99.90
23116;DHT22;11727;52.134;5.052;2023-07-31T09:50:41;17.80;99.90
23116;DHT22;11727;52.134;5.052;2023-07-31T09:53:07;17.80;99.90
23116;DHT22;11727;52.134;5.052;2023-07-31T09:55:34;17.80;99.90
23116;DHT22;11727;52.134;5.052;2023-07-31T09:58:06;17.80;99.90
23116;DHT22;11727;52.134;5.052;2023-07-31T10:00:32;17.90;99.90
23116;DHT22;11727;52.134;5.052;2023-07-31T10:03:05;17.90;99.90
23116;DHT22;11727;52.134;5.052;2023-07-31T10:05:36;17.90;99.90
23116;DHT22;11727;52.134;5.052;2023-07-31T10:08:02;17.90;99.90
23116;DHT22;11727;52.134;5.052;2023-07-31T10:10:31;17.90;99.90
23116;DHT22;11727;52.134;5.052;2023-07-31T10:12:57;17.90;99.90
23116;DHT22;11727;52.134;5.052;2023-07-31T10:15:24;17.90;99.90
23116;DHT22;11727;52.134;5.052;2023-07-31T10:17:51;18.00;99.90
23116;DHT22;11727;52.134;5.052;2023-07-31T10:20:17;17.90;99.90
23116;DHT22;11727;52.134;5.052;2023-07-31T10:22:43;17.90;99.90
23116;DHT22;11727;52.134;5.052;2023-07-31T10:25:11;18.00;99.90
23116;DHT22;11727;52.134;5.052;2023-07-31T10:27:39;18.00;99.90
23116;DHT22;11727;52.134;5.052;2023-07-31T10:30:06;18.10;99.90
23116;DHT22;11727;52.134;5.052;2023-07-31T10:32:33;18.10;99.90
23116;DHT22;11727;52.134;5.052;2023-07-31T10:35:01;18.20;99.90
23116;DHT22;11727;52.134;5.052;2023-07-31T10:37:35;18.10;99.90
23116;DHT22;11727;52.134;5.052;2023-07-31T10:40:04;18.10;99.90
23116;DHT22;11727;52.134;5.052;2023-07-31T10:42:30;18.20;99.90
23116;DHT22;11727;52.134;5.052;2023-07-31T10:45:01;18.20;99.90
23116;DHT22;11727;52.134;5.052;2023-07-31T10:47:27;18.30;99.90
23116;DHT22;11727;52.134;5.052;2023-07-31T10:49:53;18.40;99.90
23116;DHT22;11727;52.134;5.052;2023-07-31T10:52:35;18.40;99.90
23116;DHT22;11727;52.134;5.052;2023-07-31T10:55:35;18.50;99.90
23116;DHT22;11727;52.134;5.052;2023-07-31T10:58:09;18.50;99.90
23116;DHT22;11727;52.134;5.052;2023-07-31T11:00:46;18.40;99.90
23116;DHT22;11727;52.134;5.052;2023-07-31T11:03:19;18.40;99.90
23116;DHT22;11727;52.134;5.052;2023-07-31T11:06:02;18.40;99.90
23116;DHT22;11727;52.134;5.052;2023-07-31T11:08:33;18.40;99.90
23116;DHT22;11727;52.134;5.052;2023-07-31T11:13:39;18.30;99.90
23116;DHT22;11727;52.134;5.052;2023-07-31T11:16:05;18.30;99.90
23116;DHT22;11727;52.134;5.052;2023-07-31T11:18:30;18.30;99.90
23116;DHT22;11727;52.134;5.052;2023-07-31T11:20:56;18.30;99.90
23116;DHT22;11727;52.134;5.052;2023-07-31T11:23:22;18.30;99.90
23116;DHT22;11727;52.134;5.052;2023-07-31T11:25:48;18.40;99.90
23116;DHT22;11727;52.134;5.052;2023-07-31T11:28:15;18.40;99.90
23116;DHT22;11727;52.134;5.052;2023-07-31T11:30:43;18.40;99.90
23116;DHT22;11727;52.134;5.052;2023-07-31T11:33:10;18.40;99.90
23116;DHT22;11727;52.134;5.052;2023-07-31T11:35:42;18.40;99.90
23116;DHT22;11727;52.134;5.052;2023-07-31T11:38:32;18.40;99.90
23116;DHT22;11727;52.134;5.052;2023-07-31T11:40:58;18.40;99.90
23116;DHT22;11727;52.134;5.052;2023-07-31T11:43:24;18.40;99.90
23116;DHT22;11727;52.134;5.052;2023-07-31T11:45:54;18.40;99.90
23116;DHT22;11727;52.134;5.052;2023-07-31T11:48:27;18.30;99.90
23116;DHT22;11727;52.134;5.052;2023-07-31T11:50:57;18.30;99.90
23116;DHT22;11727;52.134;5.052;2023-07-31T11:53:39;18.30;99.90
23116;DHT22;11727;52.134;5.052;2023-07-31T11:56:07;18.30;99.90
23116;DHT22;11727;52.134;5.052;2023-07-31T11:58:34;18.40;99.90
23116;DHT22;11727;52.134;5.052;2023-07-31T12:01:00;18.40;99.90
23116;DHT22;11727;52.134;5.052;2023-07-31T12:03:27;18.40;99.90
23116;DHT22;11727;52.134;5.052;2023-07-31T12:05:53;18.40;99.90
23116;DHT22;11727;52.134;5.052;2023-07-31T12:08:21;18.40;99.90
23116;DHT22;11727;52.134;5.052;2023-07-31T12:10:50;18.40;99.90
23116;DHT22;11727;52.134;5.052;2023-07-31T12:13:23;18.40;99.90
23116;DHT22;11727;52.134;5.052;2023-07-31T12:15:53;18.40;99.90
23116;DHT22;11727;52.134;5.052;2023-07-31T12:18:20;18.40;99.90
23116;DHT22;11727;52.134;5.052;2023-07-31T12:23:28;18.40;99.90
23116;DHT22;11727;52.134;5.052;2023-07-31T12:26:08;18.50;99.90
23116;DHT22;11727;52.134;5.052;2023-07-31T12:28:40;18.50;99.90
23116;DHT22;11727;52.134;5.052;2023-07-31T12:31:06;18.60;99.90
23116;DHT22;11727;52.134;5.052;2023-07-31T12:33:34;18.60;99.90
23116;DHT22;11727;52.134;5.052;2023-07-31T12:36:04;18.50;99.90
23116;DHT22;11727;52.134;5.052;2023-07-31T12:38:30;18.60;99.90
23116;DHT22;11727;52.134;5.052;2023-07-31T12:40:56;18.60;99.90
23116;DHT22;11727;52.134;5.052;2023-07-31T12:43:22;18.60;99.90
23116;DHT22;11727;52.134;5.052;2023-07-31T12:45:47;18.60;99.90
23116;DHT22;11727;52.134;5.052;2023-07-31T12:48:13;18.60;99.90
23116;DHT22;11727;52.134;5.052;2023-07-31T12:50:39;18.60;99.90
23116;DHT22;11727;52.134;5.052;2023-07-31T12:53:05;18.60;99.90
23116;DHT22;11727;52.134;5.052;2023-07-31T12:55:31;18.50;99.90
23116;DHT22;11727;52.134;5.052;2023-07-31T12:57:59;18.50;99.90
23116;DHT22;11727;52.134;5.052;2023-07-31T13:00:25;18.60;99.90
23116;DHT22;11727;52.134;5.052;2023-07-31T13:02:51;18.60;99.90
23116;DHT22;11727;52.134;5.052;2023-07-31T13:05:17;18.70;99.90
23116;DHT22;11727;52.134;5.052;2023-07-31T13:07:45;18.70;99.90
23116;DHT22;11727;52.134;5.052;2023-07-31T13:10:10;18.90;99.90
23116;DHT22;11727;52.134;5.052;2023-07-31T13:12:36;18.90;99.90
23116;DHT22;11727;52.134;5.052;2023-07-31T13:15:02;18.90;99.90
23116;DHT22;11727;52.134;5.052;2023-07-31T13:17:27;18.90;99.90
23116;DHT22;11727;52.134;5.052;2023-07-31T13:19:53;18.90;99.90
23116;DHT22;11727;52.134;5.052;2023-07-31T13:22:18;18.90;99.90
23116;DHT22;11727;52.134;5.052;2023-07-31T13:24:44;18.80;99.90
23116;DHT22;11727;52.134;5.052;2023-07-31T13:27:09;18.80;99.90
23116;DHT22;11727;52.134;5.052;2023-07-31T13:29:35;18.90;99.90
23116;DHT22;11727;52.134;5.052;2023-07-31T13:32:01;18.90;99.90
23116;DHT22;11727;52.134;5.052;2023-07-31T13:34:26;18.90;99.90
23116;DHT22;11727;52.134;5.052;2023-07-31T13:36:54;18.90;99.90
23116;DHT22;11727;52.134;5.052;2023-07-31T13:39:21;18.90;99.90
23116;DHT22;11727;52.134;5.052;2023-07-31T13:41:46;18.80;99.90
23116;DHT22;11727;52.134;5.052;2023-07-31T13:44:12;18.80;99.90
23116;DHT22;11727;52.134;5.052;2023-07-31T13:46:37;18.70;99.90
23116;DHT22;11727;52.134;5.052;2023-07-31T13:49:03;18.70;99.90
23116;DHT22;11727;52.134;5.052;2023-07-31T13:51:28;18.70;99.90
23116;DHT22;11727;52.134;5.052;2023-07-31T13:53:54;18.80;99.90
23116;DHT22;11727;52.134;5.052;2023-07-31T13:56:20;18.80;99.90
23116;DHT22;11727;52.134;5.052;2023-07-31T13:58:45;18.90;99.90
23116;DHT22;11727;52.134;5.052;2023-07-31T14:01:11;18.90;99.90
23116;DHT22;11727;52.134;5.052;2023-07-31T14:03:36;18.90;99.90
23116;DHT22;11727;52.134;5.052;2023-07-31T14:06:02;18.80;99.90
23116;DHT22;11727;52.134;5.052;2023-07-31T14:08:28;18.80;99.90
23116;DHT22;11727;52.134;5.052;2023-07-31T14:10:55;18.80;99.90
23116;DHT22;11727;52.134;5.052;2023-07-31T14:13:23;18.70;99.90
23116;DHT22;11727;52.134;5.052;2023-07-31T14:15:49;18.70;99.90
23116;DHT22;11727;52.134;5.052;2023-07-31T14:18:14;18.70;99.90
23116;DHT22;11727;52.134;5.052;2023-07-31T14:20:40;18.70;99.90
23116;DHT22;11727;52.134;5.052;2023-07-31T14:23:05;18.80;99.90
23116;DHT22;11727;52.134;5.052;2023-07-31T14:25:31;18.80;99.90
23116;DHT22;11727;52.134;5.052;2023-07-31T14:27:57;18.80;99.90
23116;DHT22;11727;52.134;5.052;2023-07-31T14:30:22;18.80;99.90
23116;DHT22;11727;52.134;5.052;2023-07-31T14:32:48;18.90;99.90
23116;DHT22;11727;52.134;5.052;2023-07-31T14:35:14;18.80;99.90
23116;DHT22;11727;52.134;5.052;2023-07-31T14:37:41;18.80;99.90
23116;DHT22;11727;52.134;5.052;2023-07-31T14:40:08;18.70;99.90
23116;DHT22;11727;52.134;5.052;2023-07-31T14:42:35;18.70;99.90
23116;DHT22;11727;52.134;5.052;2023-07-31T14:45:01;18.70;99.90
23116;DHT22;11727;52.134;5.052;2023-07-31T14:47:26;18.60;99.90
23116;DHT22;11727;52.134;5.052;2023-07-31T14:49:52;18.60;99.90
23116;DHT22;11727;52.134;5.052;2023-07-31T14:52:17;18.60;99.90
23116;DHT22;11727;52.134;5.052;2023-07-31T14:54:43;18.50;99.90
23116;DHT22;11727;52.134;5.052;2023-07-31T14:57:09;18.50;99.90
23116;DHT22;11727;52.134;5.052;2023-07-31T14:59:34;18.50;99.90
23116;DHT22;11727;52.134;5.052;2023-07-31T15:02:00;18.50;99.90
23116;DHT22;11727;52.134;5.052;2023-07-31T15:04:26;18.50;99.90
23116;DHT22;11727;52.134;5.052;2023-07-31T15:06:52;18.50;99.90
23116;DHT22;11727;52.134;5.052;2023-07-31T15:09:18;18.50;99.90
23116;DHT22;11727;52.134;5.052;2023-07-31T15:11:43;18.50;99.90
23116;DHT22;11727;52.134;5.052;2023-07-31T15:14:09;18.50;99.90
23116;DHT22;11727;52.134;5.052;2023-07-31T15:16:35;18.50;99.90
23116;DHT22;11727;52.134;5.052;2023-07-31T15:19:00;18.50;99.90
23116;DHT22;11727;52.134;5.052;2023-07-31T15:21:26;18.50;99.90
23116;DHT22;11727;52.134;5.052;2023-07-31T15:23:52;18.50;99.90
23116;DHT22;11727;52.134;5.052;2023-07-31T15:26:17;18.50;99.90
23116;DHT22;11727;52.134;5.052;2023-07-31T15:28:48;18.50;99.90
23116;DHT22;11727;52.134;5.052;2023-07-31T15:31:14;18.50;99.90
23116;DHT22;11727;52.134;5.052;2023-07-31T15:33:40;18.40;99.90
23116;DHT22;11727;52.134;5.052;2023-07-31T15:36:05;18.40;99.90
23116;DHT22;11727;52.134;5.052;2023-07-31T15:38:32;18.30;99.90
23116;DHT22;11727;52.134;5.052;2023-07-31T15:40:57;18.30;99.90